createdAt,value
2024-03-11T00:00:42.474Z,100.00
2024-03-11T00:04:44.040Z,100.00
2024-03-11T00:08:45.666Z,100.00
2024-03-11T00:12:48.380Z,100.00
2024-03-11T00:16:51.246Z,100.00
2024-03-11T00:20:52.810Z,100.00
2024-03-11T00:24:54.326Z,100.00
2024-03-11T00:28:55.847Z,100.00
2024-03-11T00:32:58.837Z,100.00
2024-03-11T00:37:00.622Z,100.00
2024-03-11T00:41:02.213Z,100.00
2024-03-11T00:45:04.280Z,100.00
2024-03-11T00:49:09.248Z,100.00
2024-03-11T00:53:11.284Z,100.00
2024-03-11T00:57:15.738Z,100.00
2024-03-11T01:01:17.246Z,100.00
2024-03-11T01:05:20.210Z,100.00
2024-03-11T01:09:21.769Z,100.00
2024-03-11T01:13:23.322Z,100.00
2024-03-11T01:17:24.818Z,100.00
2024-03-11T01:21:27.819Z,100.00
2024-03-11T01:25:29.299Z,100.00
2024-03-11T01:29:30.824Z,100.00
2024-03-11T01:33:32.400Z,100.00
2024-03-11T01:37:35.245Z,100.00
2024-03-11T01:41:37.442Z,100.00
2024-03-11T01:45:39.055Z,100.00
2024-03-11T01:49:42.729Z,100.00
2024-03-11T01:53:45.631Z,100.00
2024-03-11T01:57:47.298Z,100.00
2024-03-11T02:01:48.883Z,100.00
2024-03-11T02:05:50.550Z,100.00
2024-03-11T02:09:53.501Z,100.00
2024-03-11T02:13:55.037Z,100.00
2024-03-11T02:17:56.831Z,100.00
2024-03-11T02:21:58.463Z,100.00
2024-03-11T02:26:01.426Z,100.00
2024-03-11T02:30:03.202Z,100.00
2024-03-11T02:34:04.707Z,100.00
2024-03-11T02:38:06.835Z,100.00
2024-03-11T02:42:10.883Z,100.00
2024-03-11T02:46:12.401Z,100.00
2024-03-11T02:50:13.997Z,100.00
2024-03-11T02:54:15.655Z,100.00
2024-03-11T02:58:18.581Z,100.00
2024-03-11T03:02:20.281Z,100.00
2024-03-11T03:06:21.750Z,100.00
2024-03-11T03:10:23.354Z,100.00
2024-03-11T03:14:26.208Z,100.00
2024-03-11T03:18:27.803Z,100.00
2024-03-11T03:22:29.426Z,100.00
2024-03-11T03:26:30.971Z,100.00
2024-03-11T03:30:33.829Z,100.00
2024-03-11T03:34:35.325Z,100.00
2024-03-11T03:38:36.939Z,100.00
2024-03-11T03:42:38.439Z,100.00
2024-03-11T03:46:42.440Z,100.00
2024-03-11T03:50:44.085Z,100.00
2024-03-11T03:54:45.645Z,100.00
2024-03-11T03:58:49.977Z,100.00
2024-03-11T04:02:52.861Z,100.00
2024-03-11T04:06:54.396Z,100.00
2024-03-11T04:10:56.085Z,100.00
2024-03-11T04:14:57.591Z,100.00
2024-03-11T04:19:00.591Z,100.00
2024-03-11T04:23:02.189Z,100.00
2024-03-11T04:27:03.986Z,100.00
2024-03-11T04:31:05.499Z,100.00
2024-03-11T04:35:09.031Z,100.00
2024-03-11T04:39:10.642Z,100.00
2024-03-11T04:43:12.345Z,100.00
2024-03-11T04:47:14.010Z,100.00
2024-03-11T04:51:16.930Z,100.00
2024-03-11T04:55:18.674Z,100.00
2024-03-11T04:59:20.383Z,100.00
2024-03-11T05:03:21.899Z,100.00
2024-03-11T05:07:24.718Z,100.00
2024-03-11T05:11:26.365Z,100.00
2024-03-11T05:15:28.308Z,100.00
2024-03-11T05:19:30.042Z,100.00
2024-03-11T05:23:32.982Z,100.00
2024-03-11T05:27:34.556Z,100.00
2024-03-11T05:31:36.151Z,100.00
2024-03-11T05:35:37.694Z,100.00
2024-03-11T05:39:40.862Z,100.00
2024-03-11T05:43:45.359Z,100.00
2024-03-11T05:47:47.281Z,100.00
2024-03-11T05:51:49.078Z,100.00
2024-03-11T05:55:52.317Z,100.00
2024-03-11T05:59:54.648Z,100.00
2024-03-11T06:03:56.483Z,100.00
2024-03-11T06:07:58.611Z,100.00
2024-03-11T06:12:02.335Z,100.00
2024-03-11T06:16:04.800Z,100.00
2024-03-11T06:20:08.101Z,100.00
2024-03-11T06:24:10.443Z,100.00
2024-03-11T06:28:13.969Z,100.00
2024-03-11T06:32:16.233Z,100.00
2024-03-11T06:36:18.431Z,100.00
2024-03-11T06:40:20.722Z,100.00
2024-03-11T06:44:32.921Z,100.00
2024-03-11T06:48:41.553Z,100.00
2024-03-11T06:52:43.544Z,100.00
2024-03-11T06:56:45.692Z,100.00
2024-03-11T07:00:49.454Z,100.00
2024-03-11T07:04:51.687Z,100.00
2024-03-11T07:08:53.825Z,100.00
2024-03-11T07:12:55.607Z,100.00
2024-03-11T07:17:01.367Z,100.00
2024-03-11T07:21:05.260Z,100.00
2024-03-11T07:25:08.084Z,100.00
2024-03-11T07:29:10.366Z,100.00
2024-03-11T07:33:14.060Z,100.00
2024-03-11T07:37:16.158Z,100.00
2024-03-11T07:41:18.590Z,100.00
2024-03-11T07:45:21.125Z,100.00
2024-03-11T07:49:24.296Z,100.00
2024-03-11T07:53:27.587Z,100.00
2024-03-11T07:57:29.751Z,100.00
2024-03-11T08:01:32.225Z,100.00
2024-03-11T08:05:35.742Z,100.00
2024-03-11T08:09:37.613Z,100.00
2024-03-11T08:13:39.541Z,100.00
2024-03-11T08:17:42.442Z,100.00
2024-03-11T08:21:45.756Z,100.00
2024-03-11T08:25:47.630Z,100.00
2024-03-11T08:29:49.425Z,100.00
2024-03-11T08:33:51.365Z,99.02
2024-03-11T08:37:54.673Z,100.00
2024-03-11T08:41:56.654Z,99.37
2024-03-11T08:45:58.786Z,99.51
2024-03-11T08:50:00.861Z,98.46
2024-03-11T08:54:05.296Z,95.85
2024-03-11T08:58:07.191Z,94.47
2024-03-11T09:02:09.977Z,94.39
2024-03-11T09:06:11.997Z,94.95
2024-03-11T09:10:15.869Z,91.74
2024-03-11T09:14:18.137Z,91.06
2024-03-11T09:18:20.116Z,87.37
2024-03-11T09:22:22.176Z,86.94
2024-03-11T09:26:25.745Z,88.92
2024-03-11T09:30:31.376Z,87.59
2024-03-11T09:34:34.021Z,87.48
2024-03-11T09:38:36.346Z,85.41
2024-03-11T09:42:40.338Z,83.90
2024-03-11T09:46:43.464Z,85.40
2024-03-11T09:50:46.049Z,82.00
2024-03-11T09:54:48.111Z,81.98
2024-03-11T09:58:57.596Z,81.59
2024-03-11T10:03:00.793Z,78.79
2024-03-11T10:07:04.333Z,77.08
2024-03-11T10:11:14.064Z,79.51
2024-03-11T10:15:26.825Z,79.60
2024-03-11T10:19:29.221Z,75.54
2024-03-11T10:23:31.429Z,73.77
2024-03-11T10:27:33.830Z,72.34
2024-03-11T10:31:37.324Z,71.62
2024-03-11T10:35:39.378Z,70.31
2024-03-11T10:39:41.580Z,70.87
2024-03-11T10:43:43.938Z,71.21
2024-03-11T10:47:47.469Z,66.55
2024-03-11T10:51:49.797Z,64.96
2024-03-11T10:55:53.896Z,60.58
2024-03-11T10:59:58.906Z,63.78
2024-03-11T11:04:05.028Z,64.06
2024-03-11T11:08:08.510Z,63.78
2024-03-11T11:12:11.075Z,63.34
2024-03-11T11:16:13.841Z,61.52
2024-03-11T11:20:17.998Z,61.09
2024-03-11T11:24:28.948Z,62.65
2024-03-11T11:28:33.143Z,60.40
2024-03-11T11:32:34.991Z,62.47
2024-03-11T11:36:59.790Z,60.96
2024-03-11T11:41:02.015Z,61.69
2024-03-11T11:45:05.158Z,61.36
2024-03-11T11:49:17.598Z,62.46
2024-03-11T11:53:28.546Z,61.53
2024-03-11T11:57:30.452Z,61.17
2024-03-11T12:01:47.126Z,58.68
2024-03-11T12:06:02.388Z,57.13
2024-03-11T12:10:07.891Z,58.75
2024-03-11T12:14:09.968Z,56.36
2024-03-11T12:18:14.232Z,54.78
2024-03-11T12:22:16.562Z,53.98
2024-03-11T12:26:20.118Z,55.44
2024-03-11T12:30:26.546Z,55.25
2024-03-11T12:34:28.974Z,55.37
2024-03-11T12:38:31.148Z,55.58
2024-03-11T12:42:34.841Z,56.13
2024-03-11T12:46:37.087Z,54.42
2024-03-11T12:50:39.466Z,54.42
2024-03-11T12:54:41.808Z,54.95
2024-03-11T12:58:45.128Z,52.99
2024-03-11T13:02:47.530Z,51.63
2024-03-11T13:06:49.654Z,48.32
2024-03-11T13:10:58.575Z,47.79
2024-03-11T13:15:03.155Z,46.47
2024-03-11T13:19:07.194Z,43.31
2024-03-11T13:23:11.251Z,41.34
2024-03-11T13:27:13.539Z,42.74
2024-03-11T13:31:17.564Z,43.95
2024-03-11T13:35:20.695Z,42.72
2024-03-11T13:39:22.819Z,45.40
2024-03-11T13:43:25.261Z,40.20
2024-03-11T13:47:29.162Z,39.68
2024-03-11T13:51:31.199Z,43.11
2024-03-11T13:55:33.182Z,45.43
2024-03-11T13:59:35.575Z,50.72
2024-03-11T14:03:39.309Z,51.08
2024-03-11T14:07:43.879Z,50.92
2024-03-11T14:11:46.604Z,51.26
2024-03-11T14:15:48.855Z,52.33
2024-03-11T14:19:53.807Z,51.53
2024-03-11T14:23:55.807Z,50.40
2024-03-11T14:27:58.729Z,48.25
2024-03-11T14:32:00.725Z,48.44
2024-03-11T14:36:04.990Z,48.61
2024-03-11T14:40:07.993Z,50.89
2024-03-11T14:44:10.244Z,50.78
2024-03-11T14:48:13.428Z,50.11
2024-03-11T14:52:17.310Z,52.67
2024-03-11T14:56:19.100Z,52.41
2024-03-11T15:00:20.860Z,52.72
2024-03-11T15:04:22.955Z,53.54
2024-03-11T15:08:26.397Z,55.01
2024-03-11T15:12:28.006Z,54.13
2024-03-11T15:16:29.654Z,55.39
2024-03-11T15:20:31.647Z,56.52
2024-03-11T15:24:34.574Z,58.11
2024-03-11T15:28:36.114Z,58.33
2024-03-11T15:32:37.707Z,58.11
2024-03-11T15:36:39.353Z,59.43
2024-03-11T15:40:42.283Z,58.81
2024-03-11T15:44:43.798Z,59.50
2024-03-11T15:48:45.323Z,59.49
2024-03-11T15:52:48.615Z,61.34
2024-03-11T15:56:51.539Z,65.49
2024-03-11T16:00:54.021Z,65.06
2024-03-11T16:04:55.556Z,65.28
2024-03-11T16:08:57.017Z,71.51
2024-03-11T16:13:00.642Z,67.29
2024-03-11T16:17:02.251Z,67.80
2024-03-11T16:21:04.314Z,70.39
2024-03-11T16:25:06.440Z,73.72
2024-03-11T16:29:09.305Z,76.03
2024-03-11T16:33:10.852Z,78.24
2024-03-11T16:37:12.384Z,82.44
2024-03-11T16:41:13.927Z,87.21
2024-03-11T16:45:16.833Z,90.77
2024-03-11T16:49:18.617Z,92.25
2024-03-11T16:53:20.514Z,94.89
2024-03-11T16:57:22.148Z,94.60
2024-03-11T17:01:25.298Z,92.13
2024-03-11T17:05:27.356Z,87.83
2024-03-11T17:09:28.885Z,90.96
2024-03-11T17:13:30.509Z,94.38
2024-03-11T17:17:33.467Z,96.49
2024-03-11T17:21:34.999Z,93.86
2024-03-11T17:25:37.619Z,94.06
2024-03-11T17:29:39.217Z,91.10
2024-03-11T17:33:42.107Z,91.58
2024-03-11T17:37:44.291Z,93.76
2024-03-11T17:41:45.832Z,94.33
2024-03-11T17:45:48.650Z,92.51
2024-03-11T17:49:51.599Z,93.82
2024-03-11T17:53:53.198Z,97.72
2024-03-11T17:57:55.993Z,95.98
2024-03-11T18:01:57.700Z,93.87
2024-03-11T18:06:00.548Z,95.40
2024-03-11T18:10:02.610Z,98.17
2024-03-11T18:14:04.146Z,100.00
2024-03-11T18:18:07.175Z,100.00
2024-03-11T18:22:10.029Z,100.00
2024-03-11T18:26:13.781Z,100.00
2024-03-11T18:30:16.912Z,100.00
2024-03-11T18:34:18.522Z,98.28
2024-03-11T18:38:21.342Z,95.80
2024-03-11T18:42:22.815Z,93.89
2024-03-11T18:46:24.366Z,96.54
2024-03-11T18:50:25.950Z,100.00
2024-03-11T18:54:28.832Z,100.00
2024-03-11T18:58:30.389Z,100.00
2024-03-11T19:02:31.904Z,100.00
2024-03-11T19:06:33.682Z,98.87
2024-03-11T19:10:36.518Z,100.00
2024-03-11T19:14:38.161Z,94.05
2024-03-11T19:18:39.955Z,100.00
2024-03-11T19:22:42.835Z,100.00
2024-03-11T19:26:45.821Z,100.00
2024-03-11T19:30:49.098Z,100.00
2024-03-11T19:34:50.923Z,100.00
2024-03-11T19:39:03.767Z,99.28
2024-03-11T19:43:18.061Z,100.00
2024-03-11T19:48:02.662Z,100.00
2024-03-11T19:53:00.597Z,98.73
2024-03-11T19:57:39.067Z,100.00
2024-03-11T20:02:16.251Z,100.00
2024-03-11T20:06:32.652Z,100.00
2024-03-11T20:10:57.355Z,100.00
2024-03-11T20:15:01.608Z,100.00
2024-03-11T20:19:21.425Z,100.00
2024-03-11T20:23:53.969Z,100.00
2024-03-11T20:28:02.030Z,100.00
2024-03-11T20:32:12.584Z,100.00
2024-03-11T20:36:15.452Z,100.00
2024-03-11T20:40:17.579Z,100.00
2024-03-11T20:44:19.296Z,100.00
2024-03-11T20:48:21.167Z,100.00
2024-03-11T20:52:24.614Z,100.00
2024-03-11T20:56:26.158Z,100.00
2024-03-11T21:00:27.799Z,100.00
2024-03-11T21:04:29.346Z,100.00
2024-03-11T21:08:34.339Z,100.00
2024-03-11T21:12:37.295Z,100.00
2024-03-11T21:16:38.834Z,100.00
2024-03-11T21:20:40.567Z,100.00
2024-03-11T21:24:43.478Z,100.00
2024-03-11T21:28:45.598Z,100.00
2024-03-11T21:32:47.678Z,100.00
2024-03-11T21:36:49.270Z,100.00
2024-03-11T21:40:52.140Z,100.00
2024-03-11T21:44:53.805Z,100.00
2024-03-11T21:48:55.416Z,100.00
2024-03-11T21:52:56.933Z,100.00
2024-03-11T21:56:59.803Z,100.00
2024-03-11T22:01:01.407Z,100.00
2024-03-11T22:05:03.162Z,100.00
2024-03-11T22:09:04.918Z,100.00
2024-03-11T22:13:07.801Z,100.00
2024-03-11T22:17:09.352Z,100.00
2024-03-11T22:21:11.090Z,100.00
2024-03-11T22:25:13.552Z,100.00
2024-03-11T22:29:16.431Z,100.00
2024-03-11T22:33:19.147Z,100.00
2024-03-11T22:37:20.717Z,100.00
2024-03-11T22:41:25.933Z,100.00
2024-03-11T22:45:28.844Z,100.00
2024-03-11T22:49:30.444Z,100.00
2024-03-11T22:53:32.053Z,100.00
2024-03-11T22:57:33.735Z,100.00
2024-03-11T23:01:36.638Z,100.00
2024-03-11T23:05:38.131Z,100.00
2024-03-11T23:09:39.773Z,100.00
2024-03-11T23:13:41.474Z,100.00
2024-03-11T23:17:44.366Z,100.00
2024-03-11T23:21:45.995Z,100.00
2024-03-11T23:25:47.474Z,100.00
2024-03-11T23:29:48.986Z,100.00
2024-03-11T23:33:51.902Z,100.00
2024-03-11T23:37:53.443Z,100.00
2024-03-11T23:41:54.973Z,100.00
2024-03-11T23:45:56.613Z,100.00
2024-03-11T23:49:59.563Z,100.00
2024-03-11T23:54:01.106Z,100.00
2024-03-11T23:58:02.647Z,100.00
